Terminal Aerodrome Forecast
Issued by NWS

Home | Current Version | Previous Version | Text Only | Print | Product List | Glossary On
Versions: 1 2 3 4 5 6 7 8 9 10 11 12 13 14 15 16 17 18 19 20 21 22 23 24 25 26 27 28 29
565
FTUS41 KBUF 212104 AAA
TAFJHW
TAF AMD
KJHW 212104Z 2121/2218 22014G22KT P6SM BKN250
     FM212200 21011G17KT P6SM BKN250
     FM220200 24009KT P6SM OVC030
     FM220300 24009KT 6SM -SHRA OVC025
     FM220600 28008KT 2SM -SHSN OVC012
     FM220800 29008G15KT P6SM OVC012
      AMD LTD TO CLD VIS AND WIND=

USA.gov is the U.S. government's official web portal to all federal, state and local government web resources and services.